createdAt,value
2023-01-23T00:01:35.911Z,3.10
2023-01-23T00:04:04.665Z,3.10
2023-01-23T00:06:32.564Z,3.00
2023-01-23T00:09:00.433Z,2.90
2023-01-23T00:11:30.900Z,2.80
2023-01-23T00:13:59.788Z,2.60
2023-01-23T00:16:31.719Z,2.60
2023-01-23T00:19:00.066Z,2.50
2023-01-23T00:21:29.394Z,2.50
2023-01-23T00:24:01.415Z,2.40
2023-01-23T00:26:32.642Z,2.40
2023-01-23T00:29:00.445Z,2.60
2023-01-23T00:31:31.661Z,2.50
2023-01-23T00:34:01.054Z,2.40
2023-01-23T00:36:30.767Z,2.60
2023-01-23T00:38:58.723Z,2.60
2023-01-23T00:41:26.616Z,2.50
2023-01-23T00:43:54.585Z,2.50
2023-01-23T00:46:23.250Z,2.40
2023-01-23T00:48:52.587Z,2.40
2023-01-23T00:51:20.484Z,2.60
2023-01-23T00:53:48.752Z,2.50
2023-01-23T00:56:16.910Z,2.40
2023-01-23T00:58:45.342Z,2.30
2023-01-23T01:01:13.925Z,2.40
2023-01-23T01:03:41.959Z,2.40
2023-01-23T01:06:11.871Z,2.40
2023-01-23T01:08:40.202Z,2.50
2023-01-23T01:11:08.339Z,2.60
2023-01-23T01:13:36.858Z,2.60
2023-01-23T01:16:05.313Z,2.60
2023-01-23T01:18:33.385Z,2.70
2023-01-23T01:21:01.392Z,2.90
2023-01-23T01:23:30.503Z,2.80
2023-01-23T01:26:00.285Z,2.80
2023-01-23T01:28:30.275Z,2.80
2023-01-23T01:30:58.317Z,2.70
2023-01-23T01:33:26.492Z,2.80
2023-01-23T01:35:56.475Z,2.70
2023-01-23T01:38:24.593Z,2.70
2023-01-23T01:40:53.857Z,2.60
2023-01-23T01:43:23.389Z,2.50
2023-01-23T01:46:18.362Z,2.60
2023-01-23T01:48:51.723Z,2.70
2023-01-23T01:51:33.310Z,2.70
2023-01-23T01:54:07.590Z,2.70
2023-01-23T01:56:40.458Z,2.70
2023-01-23T01:59:09.216Z,2.70
2023-01-23T02:01:37.607Z,2.80
2023-01-23T02:04:06.164Z,2.90
2023-01-23T02:06:34.170Z,2.90
2023-01-23T02:09:05.923Z,2.80
2023-01-23T02:11:34.832Z,2.70
2023-01-23T02:14:04.216Z,2.50
2023-01-23T02:16:40.217Z,2.50
2023-01-23T02:19:19.425Z,2.50
2023-01-23T02:21:51.147Z,2.60
2023-01-23T02:24:27.059Z,2.60
2023-01-23T02:26:57.177Z,2.70
2023-01-23T02:29:25.723Z,2.70
2023-01-23T02:31:56.070Z,2.60
2023-01-23T02:34:25.970Z,2.50
2023-01-23T02:36:53.791Z,2.40
2023-01-23T02:39:22.252Z,2.70
2023-01-23T02:41:51.941Z,2.70
2023-01-23T02:44:26.225Z,2.70
2023-01-23T02:46:54.486Z,2.50
2023-01-23T02:49:22.873Z,2.40
2023-01-23T02:51:50.908Z,2.30
2023-01-23T02:54:37.498Z,2.30
2023-01-23T02:57:05.375Z,2.40
2023-01-23T02:59:51.964Z,2.40
2023-01-23T03:02:19.857Z,2.30
2023-01-23T03:04:47.651Z,2.20
2023-01-23T03:07:15.483Z,2.30
2023-01-23T03:09:46.144Z,2.50
2023-01-23T03:12:14.644Z,2.60
2023-01-23T03:14:43.789Z,2.40
2023-01-23T03:17:14.698Z,2.20
2023-01-23T03:19:42.511Z,2.10
2023-01-23T03:22:10.309Z,2.10
2023-01-23T03:24:39.177Z,2.10
2023-01-23T03:27:07.429Z,2.10
2023-01-23T03:29:52.963Z,2.00
2023-01-23T03:32:22.580Z,2.10
2023-01-23T03:34:50.400Z,2.10
2023-01-23T03:37:19.627Z,2.10
2023-01-23T03:40:04.878Z,2.10
2023-01-23T03:42:34.885Z,2.20
2023-01-23T03:45:02.947Z,2.30
2023-01-23T03:47:32.087Z,2.30
2023-01-23T03:49:59.896Z,2.40
2023-01-23T03:52:27.786Z,2.30
2023-01-23T03:54:55.577Z,2.50
2023-01-23T03:57:23.676Z,2.70
2023-01-23T03:59:51.482Z,2.60
2023-01-23T04:02:19.265Z,2.60
2023-01-23T04:04:48.456Z,2.40
2023-01-23T04:07:16.279Z,2.30
2023-01-23T04:09:44.083Z,2.20
2023-01-23T04:12:11.943Z,2.20
2023-01-23T04:14:40.656Z,2.20
2023-01-23T04:17:09.271Z,2.20
2023-01-23T04:19:37.146Z,2.20
2023-01-23T04:22:06.485Z,2.10
2023-01-23T04:24:34.520Z,2.10
2023-01-23T04:27:02.394Z,2.10
2023-01-23T04:29:30.353Z,2.10
2023-01-23T04:31:58.175Z,2.00
2023-01-23T04:34:26.017Z,2.00
2023-01-23T04:36:53.827Z,2.00
2023-01-23T04:39:22.931Z,2.10
2023-01-23T04:41:50.736Z,2.10
2023-01-23T04:44:21.474Z,2.20
2023-01-23T04:46:50.172Z,2.30
2023-01-23T04:49:18.623Z,2.20
2023-01-23T04:51:47.994Z,2.20
2023-01-23T04:54:16.086Z,2.30
2023-01-23T04:56:46.059Z,2.20
2023-01-23T04:59:14.670Z,2.10
2023-01-23T05:01:42.853Z,2.20
2023-01-23T05:04:10.707Z,2.30
2023-01-23T05:06:38.540Z,2.40
2023-01-23T05:09:06.873Z,2.30
2023-01-23T05:11:34.636Z,2.30
2023-01-23T05:14:03.789Z,2.20
2023-01-23T05:16:31.639Z,2.20
2023-01-23T05:18:59.424Z,2.30
2023-01-23T05:21:27.244Z,2.50
2023-01-23T05:23:55.089Z,2.50
2023-01-23T05:26:22.927Z,2.60
2023-01-23T05:28:50.748Z,2.60
2023-01-23T05:31:19.963Z,2.70
2023-01-23T05:33:47.941Z,2.60
2023-01-23T05:36:18.361Z,2.70
2023-01-23T05:38:46.532Z,2.60
2023-01-23T05:41:14.669Z,2.70
2023-01-23T05:43:43.537Z,2.50
2023-01-23T05:46:12.023Z,2.40
2023-01-23T05:48:41.152Z,2.40
2023-01-23T05:51:09.064Z,2.50
2023-01-23T05:53:37.440Z,2.50
2023-01-23T05:56:07.426Z,2.40
2023-01-23T05:58:35.421Z,2.50
2023-01-23T06:01:04.018Z,2.50
2023-01-23T06:03:31.881Z,2.70
2023-01-23T06:06:02.159Z,2.80
2023-01-23T06:08:30.603Z,2.70
2023-01-23T06:10:59.435Z,2.50
2023-01-23T06:13:27.912Z,2.40
2023-01-23T06:15:56.305Z,2.40
2023-01-23T06:18:24.467Z,2.30
2023-01-23T06:20:58.783Z,2.30
2023-01-23T06:23:28.280Z,2.30
2023-01-23T06:25:59.600Z,2.30
2023-01-23T06:28:27.381Z,2.30
2023-01-23T06:30:55.446Z,2.30
2023-01-23T06:33:23.406Z,2.30
2023-01-23T06:35:57.486Z,2.20
2023-01-23T06:38:26.633Z,2.20
2023-01-23T06:40:54.656Z,2.20
2023-01-23T06:43:22.874Z,2.20
2023-01-23T06:45:50.994Z,2.20
2023-01-23T06:48:19.154Z,2.20
2023-01-23T06:50:46.960Z,2.20
2023-01-23T06:53:16.557Z,2.20
2023-01-23T06:55:46.251Z,2.20
2023-01-23T06:58:14.071Z,2.10
2023-01-23T07:00:44.411Z,2.10
2023-01-23T07:03:12.710Z,2.10
2023-01-23T07:05:43.186Z,2.20
2023-01-23T07:08:11.568Z,2.20
2023-01-23T07:10:40.074Z,2.20
2023-01-23T07:13:11.541Z,2.20
2023-01-23T07:15:41.107Z,2.20
2023-01-23T07:18:10.148Z,2.10
2023-01-23T07:20:38.325Z,2.10
2023-01-23T07:23:06.194Z,2.10
2023-01-23T07:25:34.014Z,2.10
2023-01-23T07:28:01.938Z,2.20
2023-01-23T07:30:31.142Z,2.20
2023-01-23T07:32:59.095Z,2.10
2023-01-23T07:35:27.309Z,2.10
2023-01-23T07:37:55.249Z,2.10
2023-01-23T07:40:23.440Z,2.10
2023-01-23T07:42:51.391Z,2.10
2023-01-23T07:45:19.457Z,2.10
2023-01-23T07:47:48.678Z,2.10
2023-01-23T07:50:16.643Z,2.10
2023-01-23T07:52:44.479Z,2.10
2023-01-23T07:55:12.343Z,2.10
2023-01-23T07:57:40.149Z,2.20
2023-01-23T08:00:09.743Z,2.20
2023-01-23T08:02:38.560Z,2.20
2023-01-23T08:05:08.834Z,2.20
2023-01-23T08:07:36.637Z,2.30
2023-01-23T08:10:04.869Z,2.40
2023-01-23T08:12:32.723Z,2.40
2023-01-23T08:15:00.514Z,2.30
2023-01-23T08:17:28.316Z,2.30
2023-01-23T08:19:56.119Z,2.30
2023-01-23T08:22:25.255Z,2.40
2023-01-23T08:24:53.041Z,2.30
2023-01-23T08:27:20.941Z,2.40
2023-01-23T08:29:48.805Z,2.50
2023-01-23T08:32:16.641Z,2.50
2023-01-23T08:34:44.458Z,2.50
2023-01-23T08:37:12.240Z,2.60
2023-01-23T08:39:42.044Z,2.60
2023-01-23T08:42:09.955Z,2.60
2023-01-23T08:44:37.727Z,2.60
2023-01-23T08:47:05.667Z,2.60
2023-01-23T08:49:33.518Z,2.60
2023-01-23T08:52:01.321Z,2.60
2023-01-23T08:54:29.090Z,2.60
2023-01-23T08:56:58.703Z,2.60
2023-01-23T08:59:26.586Z,2.60
2023-01-23T09:01:54.404Z,2.60
2023-01-23T09:04:22.192Z,2.60
2023-01-23T09:06:49.994Z,2.60
2023-01-23T09:09:18.097Z,2.60
2023-01-23T09:11:46.633Z,2.60
2023-01-23T09:14:15.773Z,2.60
2023-01-23T09:16:43.639Z,2.60
2023-01-23T09:19:12.695Z,2.60
2023-01-23T09:21:40.612Z,2.60
2023-01-23T09:24:08.757Z,2.50
2023-01-23T09:26:36.952Z,2.60
2023-01-23T09:29:04.825Z,2.50
2023-01-23T09:31:33.948Z,2.50
2023-01-23T09:34:03.322Z,2.60
2023-01-23T09:36:42.532Z,2.60
2023-01-23T09:39:12.055Z,2.60
2023-01-23T09:41:42.031Z,2.70
2023-01-23T09:44:16.462Z,2.60
2023-01-23T09:46:49.046Z,2.70
2023-01-23T09:49:25.093Z,2.70
2023-01-23T09:51:57.355Z,2.70
2023-01-23T09:54:37.249Z,2.70
2023-01-23T09:57:12.499Z,2.80
2023-01-23T09:59:58.123Z,2.80
2023-01-23T10:02:28.780Z,2.90
2023-01-23T10:04:59.086Z,3.00
2023-01-23T10:07:45.662Z,3.00
2023-01-23T10:10:51.323Z,3.00
2023-01-23T10:13:23.329Z,3.10
2023-01-23T10:16:33.257Z,3.10
2023-01-23T10:19:20.621Z,3.10
2023-01-23T10:21:56.268Z,3.10
2023-01-23T10:24:40.812Z,3.10
2023-01-23T10:27:19.155Z,3.00
2023-01-23T10:29:50.322Z,3.10
2023-01-23T10:32:25.839Z,3.20
2023-01-23T10:35:00.769Z,3.20
2023-01-23T10:37:43.796Z,3.20
2023-01-23T10:40:15.902Z,3.20
2023-01-23T10:42:44.196Z,3.20
2023-01-23T10:45:20.351Z,3.30
2023-01-23T10:47:54.753Z,3.30
2023-01-23T10:50:37.371Z,3.50
2023-01-23T10:53:09.716Z,3.50
2023-01-23T10:55:37.536Z,3.40
2023-01-23T10:58:06.761Z,3.50
2023-01-23T11:00:37.428Z,3.50
2023-01-23T11:03:29.153Z,3.50
2023-01-23T11:06:02.807Z,3.50
2023-01-23T11:08:33.565Z,3.60
2023-01-23T11:11:24.103Z,3.60
2023-01-23T11:14:04.926Z,3.60
2023-01-23T11:16:33.068Z,3.60
2023-01-23T11:19:12.485Z,3.70
2023-01-23T11:21:54.095Z,3.60
2023-01-23T11:24:39.041Z,3.60
2023-01-23T11:27:18.796Z,3.60
2023-01-23T11:29:59.915Z,3.70
2023-01-23T11:32:30.321Z,3.80
2023-01-23T11:35:12.552Z,3.80
2023-01-23T11:37:42.927Z,3.80
2023-01-23T11:40:14.974Z,3.90
2023-01-23T11:42:46.176Z,3.80
2023-01-23T11:45:17.878Z,3.80
2023-01-23T11:48:13.302Z,3.80
2023-01-23T11:50:54.856Z,3.80
2023-01-23T11:53:42.056Z,3.80
2023-01-23T11:56:44.740Z,3.80
2023-01-23T11:59:43.640Z,3.80
2023-01-23T12:02:39.333Z,3.80
2023-01-23T12:05:25.858Z,3.90
2023-01-23T12:08:00.881Z,3.90
2023-01-23T12:10:39.855Z,3.90
2023-01-23T12:13:19.482Z,3.90
2023-01-23T12:16:01.444Z,3.90
2023-01-23T12:18:40.399Z,3.90
2023-01-23T12:21:17.199Z,4.10
2023-01-23T12:24:03.060Z,4.40
2023-01-23T12:26:33.666Z,4.40
2023-01-23T12:29:30.890Z,4.50
2023-01-23T12:32:14.031Z,4.40
2023-01-23T12:34:55.473Z,4.30
2023-01-23T12:37:36.719Z,4.30
2023-01-23T12:40:13.463Z,4.40
2023-01-23T12:42:49.629Z,4.40
2023-01-23T12:45:23.071Z,4.40
2023-01-23T12:47:56.609Z,4.50
2023-01-23T12:50:41.696Z,4.60
2023-01-23T12:53:12.418Z,4.40
2023-01-23T12:55:48.006Z,4.40
2023-01-23T12:58:19.893Z,4.40
2023-01-23T13:01:00.228Z,4.40
2023-01-23T13:03:47.319Z,4.40
2023-01-23T13:06:27.710Z,4.40
2023-01-23T13:09:12.667Z,4.50
2023-01-23T13:11:55.200Z,4.60
2023-01-23T13:14:32.757Z,4.60
2023-01-23T13:17:02.839Z,4.60
2023-01-23T13:19:50.076Z,4.60
2023-01-23T13:22:31.480Z,4.60
2023-01-23T13:25:12.812Z,4.60
2023-01-23T13:27:47.067Z,4.60
2023-01-23T13:30:44.587Z,4.60
2023-01-23T13:33:51.297Z,4.60
2023-01-23T13:36:28.879Z,4.60
2023-01-23T13:39:27.881Z,4.60
2023-01-23T13:42:38.582Z,4.60
2023-01-23T13:45:26.727Z,4.60
2023-01-23T14:22:36.713Z,4.70
2023-01-23T14:25:04.992Z,4.70
2023-01-23T14:27:51.334Z,4.70
2023-01-23T14:30:24.672Z,4.60
2023-01-23T14:32:52.705Z,4.60
2023-01-23T14:35:25.471Z,4.60
2023-01-23T14:37:56.613Z,4.60
2023-01-23T14:40:28.078Z,4.60
2023-01-23T14:43:00.795Z,4.50
2023-01-23T14:45:32.214Z,4.50
2023-01-23T14:48:08.774Z,4.40
2023-01-23T14:50:37.091Z,4.40
2023-01-23T14:53:07.832Z,4.30
2023-01-23T14:55:40.105Z,4.30
2023-01-23T14:58:08.627Z,4.30
2023-01-23T15:00:36.993Z,4.30
2023-01-23T15:03:06.127Z,4.20
2023-01-23T15:05:34.261Z,4.20
2023-01-23T15:08:06.084Z,4.30
2023-01-23T15:10:44.580Z,4.30
2023-01-23T15:13:21.342Z,4.20
2023-01-23T15:15:56.412Z,4.20
2023-01-23T15:18:27.504Z,4.10
2023-01-23T15:20:56.683Z,4.10
2023-01-23T15:23:31.340Z,4.10
2023-01-23T15:26:24.557Z,4.00
2023-01-23T15:28:54.180Z,3.90
2023-01-23T15:31:29.154Z,3.90
2023-01-23T15:34:11.235Z,3.80
2023-01-23T15:36:39.459Z,3.70
2023-01-23T15:39:18.063Z,3.70
2023-01-23T15:41:50.290Z,3.60
2023-01-23T15:44:20.030Z,3.50
2023-01-23T15:46:48.103Z,3.40
2023-01-23T15:49:24.800Z,3.40
2023-01-23T15:51:55.553Z,3.30
2023-01-23T15:54:27.306Z,3.30
2023-01-23T15:57:07.196Z,3.20
2023-01-23T15:59:36.810Z,3.10
2023-01-23T16:02:05.256Z,3.10
2023-01-23T16:04:33.085Z,3.00
2023-01-23T16:07:06.136Z,3.00
2023-01-23T16:09:37.885Z,2.90
2023-01-23T16:12:15.148Z,2.90
2023-01-23T16:14:42.961Z,2.90
2023-01-23T16:17:16.721Z,2.90
2023-01-23T16:19:46.412Z,2.80
2023-01-23T16:22:18.013Z,2.80
2023-01-23T16:24:46.021Z,2.70
2023-01-23T16:27:27.119Z,2.70
2023-01-23T16:29:55.531Z,2.70
2023-01-23T16:32:23.892Z,2.60
2023-01-23T16:34:51.749Z,2.60
2023-01-23T16:37:20.204Z,2.60
2023-01-23T16:39:48.514Z,2.50
2023-01-23T16:42:19.593Z,2.50
2023-01-23T16:44:48.720Z,2.50
2023-01-23T16:47:16.546Z,2.40
2023-01-23T16:49:52.521Z,2.40
2023-01-23T16:52:22.574Z,2.50
2023-01-23T16:54:53.383Z,2.40
2023-01-23T16:57:22.030Z,2.40
2023-01-23T16:59:51.965Z,2.40
2023-01-23T17:02:23.096Z,2.40
2023-01-23T17:04:51.218Z,2.40
2023-01-23T17:07:20.060Z,2.40
2023-01-23T17:09:49.183Z,2.40
2023-01-23T17:12:20.824Z,2.40
2023-01-23T17:14:52.485Z,2.40
2023-01-23T17:17:27.597Z,2.40
2023-01-23T17:19:55.718Z,2.50
2023-01-23T17:22:26.072Z,2.50
2023-01-23T17:24:53.999Z,2.60
2023-01-23T17:27:21.837Z,2.60
2023-01-23T17:29:51.227Z,2.60
2023-01-23T17:32:27.669Z,2.60
2023-01-23T17:34:55.586Z,2.60
2023-01-23T17:37:24.344Z,2.50
2023-01-23T17:39:52.631Z,2.50
2023-01-23T17:42:21.842Z,2.50
2023-01-23T17:44:51.145Z,2.50
2023-01-23T17:47:19.448Z,2.50
2023-01-23T17:49:51.418Z,2.50
2023-01-23T17:52:21.616Z,2.50
2023-01-23T17:54:49.632Z,2.40
2023-01-23T17:57:17.426Z,2.40
2023-01-23T17:59:45.798Z,2.40
2023-01-23T18:02:27.378Z,2.40
2023-01-23T18:04:55.289Z,2.40
2023-01-23T18:07:23.066Z,2.40
2023-01-23T18:09:52.343Z,2.30
2023-01-23T18:12:29.648Z,2.30
2023-01-23T18:15:07.274Z,2.30
2023-01-23T18:17:42.372Z,2.30
2023-01-23T18:20:18.588Z,2.30
2023-01-23T18:22:47.001Z,2.20
2023-01-23T18:25:16.237Z,2.20
2023-01-23T18:27:44.716Z,2.20
2023-01-23T18:30:29.351Z,2.20
2023-01-23T18:33:36.591Z,2.20
2023-01-23T18:36:22.180Z,2.20
2023-01-23T18:39:35.180Z,2.20
2023-01-23T18:42:15.262Z,2.20
2023-01-23T18:44:47.615Z,2.20
2023-01-23T18:47:16.312Z,2.20
2023-01-23T18:49:46.140Z,2.20
2023-01-23T18:52:20.332Z,2.10
2023-01-23T18:54:59.611Z,2.10
2023-01-23T18:58:00.882Z,2.10
2023-01-23T19:00:34.051Z,2.10
2023-01-23T19:03:10.763Z,2.10
2023-01-23T19:05:40.363Z,2.20
2023-01-23T19:08:17.459Z,2.10
2023-01-23T19:10:49.065Z,2.10
2023-01-23T19:13:21.448Z,2.10
2023-01-23T19:15:58.559Z,2.10
2023-01-23T19:18:40.820Z,2.20
2023-01-23T19:21:20.326Z,2.10
2023-01-23T19:23:55.690Z,2.10
2023-01-23T19:26:25.268Z,2.10
2023-01-23T19:28:53.672Z,2.10
2023-01-23T19:31:23.705Z,2.10
2023-01-23T19:33:51.964Z,2.10
2023-01-23T19:36:21.929Z,2.10
2023-01-23T19:38:49.786Z,2.10
2023-01-23T19:41:20.943Z,2.10
2023-01-23T19:43:50.296Z,2.10
2023-01-23T19:46:19.333Z,2.10
2023-01-23T19:48:47.351Z,2.10
2023-01-23T19:51:17.709Z,2.10
2023-01-23T19:53:47.647Z,2.10
2023-01-23T19:56:17.798Z,2.10
2023-01-23T19:58:46.431Z,2.10
2023-01-23T20:01:22.683Z,2.10
2023-01-23T20:03:50.858Z,2.10
2023-01-23T20:06:18.680Z,2.00
2023-01-23T20:08:47.930Z,2.00
2023-01-23T20:11:16.114Z,2.00
2023-01-23T20:13:43.931Z,2.00
2023-01-23T20:16:18.331Z,2.00
2023-01-23T20:18:48.003Z,2.00
2023-01-23T20:21:17.099Z,1.90
2023-01-23T20:23:45.189Z,1.90
2023-01-23T20:26:14.656Z,1.90
2023-01-23T20:28:42.615Z,1.90
2023-01-23T20:31:13.313Z,1.90
2023-01-23T20:33:41.972Z,1.80
2023-01-23T20:36:11.321Z,1.80
2023-01-23T20:38:39.524Z,1.80
2023-01-23T20:41:08.906Z,1.80
2023-01-23T20:43:38.557Z,1.80
2023-01-23T20:46:07.980Z,1.80
2023-01-23T20:48:36.776Z,1.80
2023-01-23T20:51:06.353Z,1.80
2023-01-23T20:53:35.199Z,1.80
2023-01-23T20:56:04.841Z,1.90
2023-01-23T20:58:50.840Z,1.90
2023-01-23T21:01:22.421Z,1.80
2023-01-23T21:03:52.224Z,1.90
2023-01-23T21:06:20.654Z,1.80
2023-01-23T21:08:48.712Z,1.80
2023-01-23T21:11:18.636Z,1.90
2023-01-23T21:13:51.498Z,1.90
2023-01-23T21:16:20.727Z,1.90
2023-01-23T21:18:48.957Z,1.90
2023-01-23T21:21:18.893Z,1.90
2023-01-23T21:23:48.990Z,1.90
2023-01-23T21:26:17.327Z,1.90
2023-01-23T21:28:47.228Z,1.90
2023-01-23T21:31:17.715Z,1.90
2023-01-23T21:33:47.279Z,1.90
2023-01-23T21:36:17.683Z,1.80
2023-01-23T21:38:46.059Z,1.90
2023-01-23T21:41:14.061Z,1.80
2023-01-23T21:43:41.894Z,1.80
2023-01-23T21:46:09.792Z,1.80
2023-01-23T21:48:38.043Z,1.80
2023-01-23T21:51:09.838Z,1.80
2023-01-23T21:53:38.888Z,1.80
2023-01-23T21:56:07.635Z,1.80
2023-01-23T21:58:35.641Z,1.80
2023-01-23T22:01:25.346Z,1.80
2023-01-23T22:03:53.579Z,1.70
2023-01-23T22:06:22.833Z,1.70
2023-01-23T22:08:51.070Z,1.80
2023-01-23T22:11:18.919Z,1.70
2023-01-23T22:13:46.988Z,1.70
2023-01-23T22:16:15.390Z,1.80
2023-01-23T22:18:43.348Z,1.80
2023-01-23T22:21:11.767Z,1.70
2023-01-23T22:23:40.890Z,1.70
2023-01-23T22:26:10.428Z,1.70
2023-01-23T22:28:38.566Z,1.70
2023-01-23T22:31:09.958Z,1.70
2023-01-23T22:33:40.913Z,1.70
2023-01-23T22:36:12.355Z,1.70
2023-01-23T22:38:41.730Z,1.80
2023-01-23T22:41:14.470Z,1.80
2023-01-23T22:43:42.464Z,1.80
2023-01-23T22:46:12.109Z,1.80
2023-01-23T22:48:40.363Z,1.80
2023-01-23T22:51:12.743Z,1.80
2023-01-23T22:53:42.563Z,1.90
2023-01-23T22:56:11.136Z,2.00
2023-01-23T22:58:39.027Z,2.00
2023-01-23T23:01:07.670Z,2.10
2023-01-23T23:03:36.163Z,2.00
2023-01-23T23:06:06.133Z,2.00
2023-01-23T23:08:34.983Z,2.00
2023-01-23T23:11:06.048Z,2.00
2023-01-23T23:13:36.130Z,1.90
2023-01-23T23:16:04.757Z,1.90
2023-01-23T23:18:32.902Z,1.90
2023-01-23T23:21:01.511Z,2.00
2023-01-23T23:23:30.057Z,2.10
2023-01-23T23:25:58.052Z,2.10
2023-01-23T23:28:28.360Z,2.00
2023-01-23T23:30:56.259Z,2.00
2023-01-23T23:33:24.302Z,2.10
2023-01-23T23:35:52.130Z,2.20
2023-01-23T23:38:20.394Z,2.20
2023-01-23T23:40:55.271Z,2.20
2023-01-23T23:43:23.291Z,2.30
2023-01-23T23:45:54.653Z,2.40
2023-01-23T23:48:23.468Z,2.40
2023-01-23T23:50:51.331Z,2.50
2023-01-23T23:53:19.472Z,2.50
2023-01-23T23:55:48.154Z,2.40
2023-01-23T23:58:16.311Z,2.60
